Time;durP1;ratioP1;P1;durP2;ratioP2;P2;SDS_P1;SDS_P2;PMS_P1;PMS_P2;Temp;Humidity;BMP_temperature;BMP_pressure;BME280_temperature;BME280_humidity;BME280_pressure;Samples;Min_cycle;Max_cycle;Signal;HPM_P1;HPM_P2
2021/07/11 00:01:31;;;;;;;3.07;1.90;;;;;;;13.36;100.00;93909.84;5095383;28;20198;-76
2021/07/11 00:03:58;;;;;;;3.10;2.20;;;;;;;13.31;100.00;93903.38;5095399;28;20198;-76
2021/07/11 00:06:25;;;;;;;3.00;1.95;;;;;;;13.21;100.00;93900.41;5095269;28;20202;-76
2021/07/11 00:08:52;;;;;;;3.10;2.20;;;;;;;13.22;100.00;93902.03;5095480;28;20201;-76
2021/07/11 00:11:18;;;;;;;4.00;2.00;;;;;;;13.23;100.00;93901.00;5095382;28;20568;-76
2021/07/11 00:13:46;;;;;;;4.30;1.90;;;;;;;13.25;100.00;93896.34;5095219;28;20623;-76
2021/07/11 00:16:13;;;;;;;5.53;2.10;;;;;;;13.26;100.00;93899.78;5095182;28;20194;-76
2021/07/11 00:18:39;;;;;;;3.53;1.83;;;;;;;13.21;100.00;93905.66;5095043;28;20204;-76
2021/07/11 00:21:06;;;;;;;4.43;2.17;;;;;;;13.19;100.00;93910.31;5094995;28;20285;-76
2021/07/11 00:23:32;;;;;;;3.85;2.10;;;;;;;13.19;100.00;93905.09;5094928;28;20657;-76
2021/07/11 00:25:59;;;;;;;3.33;2.20;;;;;;;13.20;100.00;93904.03;5095110;28;20210;-76
2021/07/11 00:28:25;;;;;;;3.80;2.20;;;;;;;13.19;100.00;93905.09;5102155;27;20224;-76
2021/07/11 00:30:53;;;;;;;4.60;1.95;;;;;;;13.12;100.00;93902.50;5135881;27;20204;-76
2021/07/11 00:33:20;;;;;;;2.80;1.80;;;;;;;13.12;100.00;93909.56;5135810;27;20209;-76
2021/07/11 00:35:46;;;;;;;4.57;2.20;;;;;;;13.16;100.00;93916.00;5135638;27;20208;-76
2021/07/11 00:38:12;;;;;;;4.87;2.57;;;;;;;13.21;100.00;93915.34;5135859;27;20200;-76
2021/07/11 00:40:39;;;;;;;3.43;1.93;;;;;;;13.22;100.00;93904.66;5121515;27;20225;-75
2021/07/11 00:43:06;;;;;;;5.57;1.43;;;;;;;13.30;100.00;93911.44;5115151;28;20717;-76
2021/07/11 00:45:32;;;;;;;4.47;1.73;;;;;;;13.27;100.00;93917.94;5113737;28;20197;-76
2021/07/11 00:48:00;;;;;;;2.83;1.80;;;;;;;13.23;100.00;93908.88;5114874;28;20663;-76
2021/07/11 00:50:26;;;;;;;3.23;1.90;;;;;;;13.22;100.00;93904.66;5114752;28;20208;-75
2021/07/11 00:52:53;;;;;;;3.17;1.90;;;;;;;13.14;100.00;93904.91;5114976;28;20201;-75
2021/07/11 00:55:20;;;;;;;1.83;1.45;;;;;;;13.06;100.00;93908.59;5114742;28;20282;-76
2021/07/11 00:57:47;;;;;;;1.63;1.50;;;;;;;13.01;100.00;93897.16;5114903;28;20204;-76
2021/07/11 01:00:14;;;;;;;6.30;2.35;;;;;;;13.01;100.00;93897.16;5114136;28;20488;-76
2021/07/11 01:02:48;;;;;;;3.27;1.87;;;;;;;12.99;100.00;93897.38;5114637;28;20197;-75
2021/07/11 01:05:17;;;;;;;2.17;1.73;;;;;;;13.01;100.00;93895.31;5114571;28;20793;-76
2021/07/11 01:07:48;;;;;;;5.80;2.00;;;;;;;12.96;100.00;93901.19;5114486;28;20668;-76
2021/07/11 01:10:23;;;;;;;4.77;1.80;;;;;;;12.84;100.00;93907.31;5114646;28;20201;-76
2021/07/11 01:12:53;;;;;;;3.77;1.87;;;;;;;12.83;100.00;93906.53;5114500;28;20202;-76
2021/07/11 01:15:21;;;;;;;4.83;2.40;;;;;;;12.83;100.00;93917.00;5114274;28;20274;-76
2021/07/11 01:17:48;;;;;;;2.60;1.90;;;;;;;12.90;100.00;93915.13;5114488;28;20202;-76
2021/07/11 01:20:37;;;;;;;3.47;2.07;;;;;;;12.96;100.00;93911.69;5114416;28;20201;-76
2021/07/11 01:23:08;;;;;;;3.80;1.80;;;;;;;13.01;100.00;93918.13;5114339;28;20205;-76
2021/07/11 01:25:41;;;;;;;3.63;2.00;;;;;;;12.99;100.00;93920.13;5114176;28;20304;-76
2021/07/11 01:28:10;;;;;;;4.83;2.50;;;;;;;13.01;100.00;93918.13;5113571;28;20197;-76
2021/07/11 01:30:38;;;;;;;3.10;1.90;;;;;;;13.02;100.00;93919.72;5073609;28;20195;-76
2021/07/11 01:33:06;;;;;;;3.70;2.40;;;;;;;13.00;100.00;93913.88;5073304;28;20672;-76
2021/07/11 01:35:33;;;;;;;3.23;2.10;;;;;;;13.01;100.00;93918.91;5073148;28;20632;-76
2021/07/11 01:38:00;;;;;;;3.23;2.30;;;;;;;13.06;100.00;93913.84;5073342;28;20221;-76
2021/07/11 01:40:29;;;;;;;4.10;2.27;;;;;;;13.11;100.00;93914.00;5073155;28;20206;-77
2021/07/11 01:42:58;;;;;;;3.25;2.35;;;;;;;13.13;100.00;93911.16;5073387;28;20210;-76
2021/07/11 01:45:25;;;;;;;3.30;2.20;;;;;;;13.14;100.00;93918.03;5073201;28;20206;-77
2021/07/11 01:47:52;;;;;;;2.60;1.92;;;;;;;13.13;100.00;93917.19;5073296;28;20245;-76
2021/07/11 01:50:19;;;;;;;2.45;2.00;;;;;;;13.14;100.00;93920.66;5073175;28;20617;-75
2021/07/11 01:52:46;;;;;;;7.18;2.08;;;;;;;13.12;100.00;93926.09;5073185;28;20229;-76
2021/07/11 01:55:14;;;;;;;2.65;2.08;;;;;;;13.13;100.00;93926.91;5072994;28;20276;-75
2021/07/11 01:57:40;;;;;;;2.35;2.03;;;;;;;13.16;100.00;93930.94;5072867;28;20657;-75
2021/07/11 02:00:12;;;;;;;3.45;2.25;;;;;;;13.14;100.00;93925.88;5073139;28;20199;-75
2021/07/11 02:02:38;;;;;;;3.63;2.35;;;;;;;13.17;100.00;93927.28;5073031;28;20207;-75
2021/07/11 02:05:07;;;;;;;6.30;2.10;;;;;;;13.14;100.00;93925.88;5072959;28;20202;-76
2021/07/11 02:07:33;;;;;;;5.65;2.10;;;;;;;13.14;100.00;93929.31;5073371;28;20198;-76
2021/07/11 02:10:00;;;;;;;6.03;2.30;;;;;;;13.14;100.00;93926.69;5073004;28;20210;-75
2021/07/11 02:12:30;;;;;;;2.72;2.17;;;;;;;13.17;100.00;93925.44;5072998;28;20209;-76
2021/07/11 02:14:58;;;;;;;5.32;1.92;;;;;;;13.21;100.00;93929.25;5072911;28;20233;-76
2021/07/11 02:17:28;;;;;;;2.20;1.73;;;;;;;13.17;100.00;93930.69;5072871;28;20199;-75
2021/07/11 02:20:00;;;;;;;5.38;2.13;;;;;;;13.13;100.00;93927.69;5072783;28;20214;-75
2021/07/11 02:22:28;;;;;;;3.28;2.15;;;;;;;13.11;100.00;93926.31;5072932;28;20385;-76
2021/07/11 02:24:57;;;;;;;3.33;2.28;;;;;;;13.12;100.00;93925.28;5072824;28;20257;-76
2021/07/11 02:27:24;;;;;;;5.70;2.13;;;;;;;13.14;100.00;93924.06;5072809;28;20199;-75
2021/07/11 02:29:54;;;;;;;4.93;2.03;;;;;;;13.11;100.00;93921.06;5106570;28;20232;-75
2021/07/11 02:32:26;;;;;;;3.13;1.98;;;;;;;13.08;100.00;93909.19;5113111;28;20201;-75
2021/07/11 02:34:53;;;;;;;5.03;2.00;;;;;;;13.07;100.00;93912.00;5113245;28;20471;-76
2021/07/11 02:37:22;;;;;;;5.03;1.85;;;;;;;13.07;100.00;93914.63;5113114;28;20716;-75
2021/07/11 02:39:51;;;;;;;4.38;2.30;;;;;;;13.10;100.00;93911.59;5113264;28;20201;-76
2021/07/11 02:42:21;;;;;;;4.20;2.40;;;;;;;13.12;100.00;93920.03;5113173;28;20202;-76
2021/07/11 02:44:51;;;;;;;3.95;1.95;;;;;;;13.15;100.00;93909.13;5113114;28;20197;-75
2021/07/11 02:47:21;;;;;;;6.57;2.07;;;;;;;13.17;100.00;93914.16;5112863;28;20564;-77
2021/07/11 02:49:52;;;;;;;3.65;2.38;;;;;;;13.21;100.00;93915.34;5113267;28;20193;-76
2021/07/11 02:52:20;;;;;;;3.90;2.43;;;;;;;13.25;100.00;93914.69;5113231;28;20198;-76
2021/07/11 02:54:52;;;;;;;2.80;2.10;;;;;;;13.23;100.00;93911.50;5113054;28;20707;-76
2021/07/11 02:57:22;;;;;;;3.97;2.20;;;;;;;13.23;100.00;93913.31;5113011;28;20243;-76
2021/07/11 02:59:51;;;;;;;3.17;2.40;;;;;;;13.19;100.00;93912.13;5113162;28;20198;-75
2021/07/11 03:02:19;;;;;;;3.42;2.30;;;;;;;13.16;100.00;93916.00;5113056;28;20197;-76
2021/07/11 03:04:46;;;;;;;5.28;1.88;;;;;;;13.12;100.00;93912.16;5112950;28;20201;-75
2021/07/11 03:07:15;;;;;;;6.90;2.00;;;;;;;13.10;100.00;93911.59;5113006;28;20254;-76
2021/07/11 03:09:41;;;;;;;6.53;2.08;;;;;;;13.08;100.00;93903.13;5116727;28;20205;-76
2021/07/11 03:12:08;;;;;;;5.50;2.17;;;;;;;13.04;100.00;93904.56;5116693;28;20205;-75
2021/07/11 03:14:36;;;;;;;3.47;2.33;;;;;;;12.99;100.00;93910.47;5116567;28;20678;-76
2021/07/11 03:17:03;;;;;;;3.35;2.00;;;;;;;13.01;100.00;93902.41;5116786;28;20274;-76
2021/07/11 03:19:31;;;;;;;3.67;2.25;;;;;;;12.99;100.00;93899.97;5116820;28;20194;-76
2021/07/11 03:21:59;;;;;;;3.00;2.03;;;;;;;12.99;100.00;93897.38;5116737;28;20208;-76
2021/07/11 03:24:30;;;;;;;3.85;2.10;;;;;;;12.98;100.00;93905.44;5115691;28;20216;-76
2021/07/11 03:26:57;;;;;;;3.03;2.00;;;;;;;12.96;100.00;93906.44;5116427;28;20197;-75
2021/07/11 03:29:29;;;;;;;2.80;2.13;;;;;;;12.94;100.00;93905.84;5116205;28;20233;-76
2021/07/11 03:31:57;;;;;;;7.43;2.47;;;;;;;12.95;100.00;93907.44;5116646;28;20224;-75
2021/07/11 03:34:28;;;;;;;5.18;2.30;;;;;;;12.94;100.00;93903.22;5116204;28;20254;-77
2021/07/11 03:36:56;;;;;;;3.08;2.15;;;;;;;12.96;100.00;93911.69;5116481;28;20201;-76
2021/07/11 03:39:27;;;;;;;10.00;2.20;;;;;;;12.98;100.00;93908.84;5116348;28;20310;-76
2021/07/11 03:41:56;;;;;;;3.50;2.07;;;;;;;13.00;100.00;93913.88;5116444;28;20250;-76
2021/07/11 03:44:28;;;;;;;5.60;2.20;;;;;;;12.99;100.00;93905.22;5116210;28;20725;-76
2021/07/11 03:46:56;;;;;;;5.93;2.30;;;;;;;13.01;100.00;93903.19;5116225;28;20266;-75
2021/07/11 03:49:23;;;;;;;5.20;2.60;;;;;;;13.06;100.00;93905.19;5116011;28;20225;-78
2021/07/11 03:51:51;;;;;;;5.63;2.50;;;;;;;13.10;100.00;93901.09;5116048;28;20675;-76
2021/07/11 03:54:18;;;;;;;4.78;1.85;;;;;;;13.06;100.00;93905.97;5115905;28;20648;-75
2021/07/11 03:56:48;;;;;;;4.93;2.05;;;;;;;13.01;100.00;93907.63;5115968;28;20217;-77
2021/07/11 03:59:16;;;;;;;3.33;2.20;;;;;;;12.94;100.00;93902.44;5116100;28;20254;-77
2021/07/11 04:01:45;;;;;;;3.47;2.30;;;;;;;12.86;100.00;93911.34;5115817;28;20194;-75
2021/07/11 04:04:16;;;;;;;6.28;2.70;;;;;;;12.78;100.00;93911.59;5115563;28;20910;-76
2021/07/11 04:06:46;;;;;;;6.33;2.50;;;;;;;12.76;100.00;93911.81;5115917;28;20288;-76
2021/07/11 04:09:17;;;;;;;3.17;2.20;;;;;;;12.68;100.00;93906.81;5115737;28;20236;-76
2021/07/11 04:11:46;;;;;;;4.07;2.23;;;;;;;12.67;100.00;93904.38;5115763;28;20284;-77
2021/07/11 04:14:15;;;;;;;3.63;2.20;;;;;;;12.66;100.00;93902.81;5115700;28;20594;-76
2021/07/11 04:16:45;;;;;;;6.00;2.63;;;;;;;12.59;100.00;93898.41;5115675;28;20256;-76
2021/07/11 04:19:14;;;;;;;3.53;2.53;;;;;;;12.53;100.00;93896.59;5115239;28;20556;-75
2021/07/11 04:21:42;;;;;;;6.00;2.60;;;;;;;12.48;100.00;93908.72;5115596;28;20208;-75
2021/07/11 04:24:08;;;;;;;5.40;2.80;;;;;;;12.45;100.00;93896.84;5115643;28;20202;-76
2021/07/11 04:26:38;;;;;;;7.13;2.70;;;;;;;12.45;100.00;93906.53;5115304;28;20204;-76
2021/07/11 04:29:06;;;;;;;3.50;2.67;;;;;;;12.43;100.00;93901.50;5121206;27;20236;-75
2021/07/11 04:31:33;;;;;;;4.17;2.37;;;;;;;12.38;100.00;93904.72;5136051;27;20223;-75
2021/07/11 04:34:13;;;;;;;7.60;3.00;;;;;;;12.34;100.00;93893.09;5135973;27;20208;-75
2021/07/11 04:36:39;;;;;;;12.27;3.30;;;;;;;12.36;100.00;93901.53;5135780;27;20220;-76
2021/07/11 04:39:06;;;;;;;3.90;2.53;;;;;;;12.40;100.00;93915.00;5135793;27;20258;-75
2021/07/11 04:41:33;;;;;;;5.63;2.70;;;;;;;12.39;100.00;93916.03;5135585;27;20246;-75
2021/07/11 04:44:04;;;;;;;6.20;2.90;;;;;;;12.40;100.00;93913.16;5135785;27;20192;-75
2021/07/11 04:46:32;;;;;;;7.80;2.77;;;;;;;12.47;100.00;93913.16;5135742;27;20288;-77
2021/07/11 04:48:58;;;;;;;4.97;3.30;;;;;;;12.58;100.00;93922.97;5135745;27;20273;-77
2021/07/11 04:51:25;;;;;;;4.37;3.10;;;;;;;12.71;100.00;93918.69;5135461;27;20220;-77
2021/07/11 04:53:51;;;;;;;9.43;3.73;;;;;;;13.01;100.00;93923.34;5135426;27;20245;-76
2021/07/11 04:56:18;;;;;;;6.22;2.97;;;;;;;13.24;100.00;93926.22;5135211;27;20236;-76
2021/07/11 04:58:45;;;;;;;7.23;3.10;;;;;;;13.45;100.00;93924.25;5135416;27;20192;-76
2021/07/11 05:01:11;;;;;;;7.80;2.50;;;;;;;13.49;100.00;93935.94;5135373;27;20204;-76
2021/07/11 05:03:39;;;;;;;5.03;2.38;;;;;;;13.73;100.00;93930.91;5135238;27;20208;-76
2021/07/11 05:06:05;;;;;;;3.78;2.10;;;;;;;13.86;100.00;93936.81;5135030;27;20666;-76
2021/07/11 05:08:32;;;;;;;3.58;2.00;;;;;;;14.11;100.00;93937.81;5135102;27;20193;-75
2021/07/11 05:11:01;;;;;;;2.15;1.67;;;;;;;14.21;100.00;93932.84;5135273;27;20208;-75
2021/07/11 05:13:28;;;;;;;3.42;1.85;;;;;;;14.34;100.00;93942.38;5135119;27;20201;-76
2021/07/11 05:15:54;;;;;;;5.28;2.03;;;;;;;14.37;100.00;93937.53;5129530;27;20217;-76
2021/07/11 05:18:21;;;;;;;3.47;1.77;;;;;;;14.46;100.00;93937.22;5114520;28;20200;-75
2021/07/11 05:20:48;;;;;;;4.78;1.90;;;;;;;14.64;100.00;93931.16;5113887;28;20435;-75
2021/07/11 05:23:15;;;;;;;5.35;1.60;;;;;;;14.70;100.00;93936.31;5113861;28;20247;-77
2021/07/11 05:25:41;;;;;;;3.67;1.70;;;;;;;14.61;100.00;93937.66;5114173;28;20610;-77
2021/07/11 05:28:08;;;;;;;2.47;1.23;;;;;;;14.72;100.00;93949.25;5114234;28;20189;-75
2021/07/11 05:30:34;;;;;;;4.95;1.77;;;;;;;14.51;100.00;93947.88;5113351;28;20712;-76
2021/07/11 05:33:01;;;;;;;2.83;1.98;;;;;;;14.35;100.00;93947.41;5113917;28;20198;-76
2021/07/11 05:35:28;;;;;;;5.18;1.80;;;;;;;14.48;100.00;93937.81;5114034;28;20326;-76
2021/07/11 05:37:56;;;;;;;3.05;1.42;;;;;;;14.47;100.00;93938.81;5114038;28;20212;-76
2021/07/11 05:40:22;;;;;;;1.67;1.15;;;;;;;14.56;100.00;93945.38;5114041;28;20201;-76
2021/07/11 05:42:50;;;;;;;3.08;2.10;;;;;;;14.29;100.00;93939.63;5114127;28;20205;-76
2021/07/11 05:45:17;;;;;;;2.97;1.52;;;;;;;14.46;100.00;93940.66;5113990;28;20262;-76
2021/07/11 05:47:43;;;;;;;2.15;1.50;;;;;;;14.67;100.00;93952.56;5113894;28;20202;-75
2021/07/11 05:50:12;;;;;;;3.58;2.00;;;;;;;14.58;100.00;93943.34;5113817;28;20655;-76
2021/07/11 05:52:38;;;;;;;3.92;2.08;;;;;;;14.75;100.00;93936.47;5113718;28;20212;-76
2021/07/11 05:55:08;;;;;;;2.58;1.67;;;;;;;16.13;100.00;93948.75;5113820;28;20594;-76
2021/07/11 05:57:35;;;;;;;1.77;1.40;;;;;;;18.03;100.00;93944.31;5113629;28;20204;-75
2021/07/11 06:00:02;;;;;;;3.08;1.20;;;;;;;19.74;100.00;93942.53;5113773;28;20197;-76
2021/07/11 06:02:28;;;;;;;1.52;1.20;;;;;;;21.21;91.71;93935.59;5113569;28;20201;-75
2021/07/11 06:04:55;;;;;;;1.73;0.85;;;;;;;22.88;78.91;93938.66;5113543;28;20208;-75
2021/07/11 06:07:21;;;;;;;2.22;1.10;;;;;;;23.55;74.27;93940.94;5113636;28;20202;-75
2021/07/11 06:09:47;;;;;;;2.25;1.20;;;;;;;23.79;70.24;93941.06;5113360;28;20667;-76
2021/07/11 06:12:15;;;;;;;1.70;1.20;;;;;;;23.19;70.72;93943.84;5113630;28;20205;-76
2021/07/11 06:14:42;;;;;;;2.15;1.08;;;;;;;21.84;74.80;93939.94;5113578;28;20197;-75
2021/07/11 06:17:09;;;;;;;2.60;1.40;;;;;;;20.18;83.69;93944.97;5113205;28;20260;-76
2021/07/11 06:19:35;;;;;;;2.42;1.38;;;;;;;19.45;89.84;93942.00;5113287;28;20288;-76
2021/07/11 06:22:02;;;;;;;2.28;1.13;;;;;;;18.60;96.89;93937.13;5113505;28;20250;-74
2021/07/11 06:24:28;;;;;;;2.20;1.15;;;;;;;18.02;100.00;93937.44;5113404;28;20201;-77
2021/07/11 06:26:55;;;;;;;2.65;1.75;;;;;;;16.99;100.00;93935.75;5113245;28;20210;-77
2021/07/11 06:29:22;;;;;;;3.50;1.60;;;;;;;17.04;100.00;93942.13;5103268;28;20229;-76
2021/07/11 06:31:49;;;;;;;4.60;1.70;;;;;;;17.12;100.00;93941.75;5092854;28;20275;-76
2021/07/11 06:34:15;;;;;;;3.33;1.80;;;;;;;17.16;100.00;93934.97;5092751;28;20255;-76
2021/07/11 06:36:42;;;;;;;3.05;1.55;;;;;;;17.21;100.00;93937.72;5092887;28;20229;-76
2021/07/11 06:39:08;;;;;;;2.22;1.70;;;;;;;17.11;100.00;93937.53;5092908;28;20209;-75
2021/07/11 06:41:35;;;;;;;2.30;1.70;;;;;;;17.26;100.00;93939.66;5093306;28;20229;-76
2021/07/11 06:44:02;;;;;;;3.35;1.60;;;;;;;17.00;100.00;93940.00;5096927;28;20209;-76
2021/07/11 06:46:29;;;;;;;3.08;1.63;;;;;;;17.13;100.00;93935.44;5096787;28;20194;-75
2021/07/11 06:48:56;;;;;;;2.33;1.60;;;;;;;17.47;100.00;93941.59;5097061;28;20198;-76
2021/07/11 06:51:23;;;;;;;4.47;1.65;;;;;;;17.25;100.00;93938.81;5096904;28;20243;-75
2021/07/11 06:53:49;;;;;;;2.78;1.85;;;;;;;16.74;100.00;93941.31;5096908;28;20575;-76
2021/07/11 06:56:15;;;;;;;2.10;1.45;;;;;;;16.43;100.00;93943.31;5096734;28;20244;-76
2021/07/11 06:58:42;;;;;;;3.83;1.80;;;;;;;16.35;100.00;93941.06;5096649;28;20217;-76
2021/07/11 07:01:08;;;;;;;4.55;2.00;;;;;;;16.22;100.00;93944.75;5096410;28;20206;-76
2021/07/11 07:03:36;;;;;;;2.75;1.83;;;;;;;16.21;100.00;93945.78;5096775;28;20209;-76
2021/07/11 07:06:03;;;;;;;4.10;1.95;;;;;;;16.37;100.00;93948.72;5096657;28;20255;-75
2021/07/11 07:08:29;;;;;;;3.10;1.83;;;;;;;16.64;100.00;93947.19;5096626;28;20202;-76
2021/07/11 07:10:56;;;;;;;2.67;1.73;;;;;;;16.90;100.00;93950.34;5096532;28;20198;-76
2021/07/11 07:13:22;;;;;;;2.88;1.80;;;;;;;16.79;100.00;93937.97;5095829;28;20202;-75
2021/07/11 07:15:49;;;;;;;2.92;1.55;;;;;;;16.93;100.00;93947.22;5096143;28;20260;-76
2021/07/11 07:18:15;;;;;;;5.63;1.60;;;;;;;16.75;100.00;93944.75;5096264;28;20665;-75
2021/07/11 07:20:43;;;;;;;2.65;1.63;;;;;;;16.71;100.00;93954.16;5096252;28;20208;-76
2021/07/11 07:23:10;;;;;;;2.10;1.52;;;;;;;16.77;100.00;93958.47;5096080;28;20205;-75
2021/07/11 07:25:36;;;;;;;4.72;1.65;;;;;;;17.22;100.00;93952.50;5095952;28;20591;-76
2021/07/11 07:28:03;;;;;;;5.95;2.08;;;;;;;17.37;100.00;93950.13;5096040;28;20194;-75
2021/07/11 07:30:30;;;;;;;4.00;2.03;;;;;;;17.53;100.00;93953.03;5133333;27;20251;-77
2021/07/11 07:32:56;;;;;;;2.58;1.63;;;;;;;17.45;100.00;93950.78;5136034;27;20933;-76
2021/07/11 07:35:23;;;;;;;3.42;2.38;;;;;;;17.01;100.00;93956.63;5137099;27;20208;-78
2021/07/11 07:37:51;;;;;;;4.15;1.73;;;;;;;17.51;100.00;93947.19;5136760;27;20221;-77
2021/07/11 07:40:19;;;;;;;3.83;1.50;;;;;;;17.24;100.00;93952.28;5136922;27;20200;-77
2021/07/11 07:42:46;;;;;;;2.83;1.40;;;;;;;17.48;100.00;93955.56;5136743;27;20242;-76
2021/07/11 07:45:13;;;;;;;2.70;1.90;;;;;;;17.36;100.00;93945.88;5136999;27;20273;-77
2021/07/11 07:47:39;;;;;;;2.60;1.95;;;;;;;17.42;100.00;93943.31;5136685;27;20257;-77
2021/07/11 07:50:09;;;;;;;3.15;1.65;;;;;;;17.63;100.00;93945.25;5136910;27;20193;-76
2021/07/11 07:52:35;;;;;;;3.25;1.60;;;;;;;17.43;100.00;93951.00;5136720;27;20196;-77
2021/07/11 07:55:03;;;;;;;2.35;1.35;;;;;;;17.93;100.00;93949.44;5135931;27;20201;-77
2021/07/11 07:57:30;;;;;;;2.63;1.70;;;;;;;18.30;96.63;93947.06;5136419;27;20224;-75
2021/07/11 07:59:57;;;;;;;3.60;1.80;;;;;;;19.10;93.79;93944.09;5136663;27;20201;-76
2021/07/11 08:02:25;;;;;;;2.28;1.23;;;;;;;19.77;87.98;93948.13;5136585;27;20237;-75
2021/07/11 08:04:52;;;;;;;4.43;1.50;;;;;;;19.66;91.13;93945.63;5136494;27;20231;-75
2021/07/11 08:07:24;;;;;;;1.77;1.40;;;;;;;19.65;84.40;93944.03;5136374;27;20227;-75
2021/07/11 08:09:54;;;;;;;3.67;1.52;;;;;;;18.79;87.95;93946.34;5136198;27;20674;-76
2021/07/11 08:12:22;;;;;;;2.50;1.60;;;;;;;18.60;92.84;93943.22;5136408;27;20216;-75
2021/07/11 08:14:49;;;;;;;2.88;1.48;;;;;;;18.54;95.64;93938.13;5136241;27;20209;-76
2021/07/11 08:17:16;;;;;;;2.40;1.48;;;;;;;18.12;94.40;93942.06;5136143;27;20220;-75
2021/07/11 08:19:42;;;;;;;2.92;1.50;;;;;;;18.11;94.22;93941.25;5136152;27;20204;-77
2021/07/11 08:22:09;;;;;;;2.47;1.63;;;;;;;18.30;95.40;93943.63;5136064;27;20567;-76
2021/07/11 08:24:35;;;;;;;3.38;1.63;;;;;;;18.51;92.60;93949.19;5136527;27;20193;-76
2021/07/11 08:27:04;;;;;;;2.10;1.67;;;;;;;18.94;91.02;93950.25;5136177;27;20197;-76
2021/07/11 08:29:32;;;;;;;3.28;1.42;;;;;;;19.07;89.00;93947.22;5135814;27;20325;-75
2021/07/11 08:31:59;;;;;;;1.75;1.48;;;;;;;19.17;91.16;93955.25;5135946;27;20197;-76
2021/07/11 08:34:26;;;;;;;1.98;1.30;;;;;;;18.93;90.14;93946.00;5135848;27;20197;-76
2021/07/11 08:36:58;;;;;;;3.08;1.38;;;;;;;18.88;89.35;93953.88;5135693;27;20232;-76
2021/07/11 08:39:25;;;;;;;4.55;1.45;;;;;;;19.02;89.90;93955.91;5135921;27;20287;-76
2021/07/11 08:41:51;;;;;;;2.55;1.60;;;;;;;19.10;92.04;93962.59;5135643;27;20559;-75
2021/07/11 08:44:18;;;;;;;4.35;1.58;;;;;;;19.63;86.31;93952.22;5135571;27;20655;-75
2021/07/11 08:46:45;;;;;;;3.13;1.40;;;;;;;20.04;84.10;93962.38;5135617;27;20265;-75
2021/07/11 08:49:12;;;;;;;4.25;2.10;;;;;;;20.02;82.96;93962.63;5135577;27;20274;-76
2021/07/11 08:51:38;;;;;;;2.58;1.60;;;;;;;19.41;82.86;93955.75;5135345;27;20571;-78
2021/07/11 08:54:05;;;;;;;3.42;1.40;;;;;;;19.21;84.01;93952.91;5135590;27;20201;-77
2021/07/11 08:56:31;;;;;;;3.42;1.40;;;;;;;19.40;83.30;93948.06;5135480;27;20220;-76
2021/07/11 08:58:58;;;;;;;2.83;1.75;;;;;;;19.33;87.56;93952.75;5135594;27;20555;-76
2021/07/11 09:01:27;;;;;;;2.03;1.50;;;;;;;19.47;85.92;93955.78;5135298;27;20205;-76
2021/07/11 09:04:03;;;;;;;2.58;1.60;;;;;;;19.10;89.94;93954.66;5135139;27;20197;-76
2021/07/11 09:06:47;;;;;;;2.47;1.35;;;;;;;18.20;94.29;93961.97;5134342;27;20203;-75
2021/07/11 09:09:23;;;;;;;2.40;1.48;;;;;;;17.43;94.75;93966.06;5135219;27;20208;-75
2021/07/11 09:11:52;;;;;;;1.85;1.40;;;;;;;16.95;100.00;93968.91;5135137;27;20265;-75
2021/07/11 09:14:23;;;;;;;2.75;1.52;;;;;;;16.69;100.00;93982.59;5134440;27;20707;-76
2021/07/11 09:16:51;;;;;;;3.15;2.10;;;;;;;16.04;100.00;93987.81;5135067;27;20233;-76
2021/07/11 09:19:38;;;;;;;4.72;1.95;;;;;;;15.80;100.00;93984.34;5135132;27;20204;-76
2021/07/11 09:22:07;;;;;;;5.50;1.80;;;;;;;15.70;100.00;93982.28;5135113;27;20201;-76
2021/07/11 09:24:35;;;;;;;4.40;2.08;;;;;;;15.72;100.00;93982.84;5134834;27;20203;-76
2021/07/11 09:27:16;;;;;;;5.90;2.20;;;;;;;15.93;100.00;93980.72;5090505;27;20562;-77
2021/07/11 09:29:46;;;;;;;4.65;2.05;;;;;;;16.22;100.00;93988.72;5082107;28;20194;-77
2021/07/11 09:32:24;;;;;;;2.65;1.80;;;;;;;16.67;100.00;93985.47;5070105;28;20201;-77
2021/07/11 09:34:50;;;;;;;3.75;2.08;;;;;;;17.20;100.00;93976.50;5070076;28;20719;-77
2021/07/11 09:37:21;;;;;;;4.15;1.73;;;;;;;17.23;100.00;93977.06;5069984;28;20248;-76
2021/07/11 09:39:51;;;;;;;3.40;1.67;;;;;;;17.82;100.00;93974.88;5069957;28;20856;-76
2021/07/11 09:42:33;;;;;;;4.70;1.83;;;;;;;17.99;100.00;93974.13;5069986;28;20210;-76
2021/07/11 09:45:14;;;;;;;2.22;1.52;;;;;;;18.43;100.00;93968.91;5069898;28;20206;-76
2021/07/11 09:47:40;;;;;;;5.70;1.60;;;;;;;18.91;100.00;93969.28;5069925;28;20203;-76
2021/07/11 09:50:14;;;;;;;4.80;1.90;;;;;;;19.62;100.00;93977.13;5069864;28;20588;-76
2021/07/11 09:52:43;;;;;;;2.50;1.63;;;;;;;20.04;100.00;93973.00;5069707;28;20202;-75
2021/07/11 09:55:12;;;;;;;5.20;1.80;;;;;;;19.53;100.00;93968.81;5069610;28;20658;-76
2021/07/11 09:57:43;;;;;;;3.55;1.98;;;;;;;19.06;100.00;93961.50;5069317;28;20203;-76
2021/07/11 10:00:13;;;;;;;2.63;1.73;;;;;;;18.44;100.00;93957.28;5069646;28;20207;-76
2021/07/11 10:02:41;;;;;;;2.45;1.50;;;;;;;18.26;100.00;93961.03;5069904;28;20200;-75
2021/07/11 10:05:09;;;;;;;2.75;1.77;;;;;;;17.83;100.00;93975.69;5069326;28;20589;-77
2021/07/11 10:07:37;;;;;;;6.38;1.73;;;;;;;17.69;100.00;93970.72;5069425;28;20199;-76
2021/07/11 10:10:06;;;;;;;4.82;2.10;;;;;;;17.94;100.00;93970.34;5069512;28;20257;-77
2021/07/11 10:12:33;;;;;;;4.78;1.70;;;;;;;18.34;100.00;93980.97;5069242;28;20198;-76
2021/07/11 10:15:01;;;;;;;2.85;1.70;;;;;;;18.59;100.00;93983.13;5069207;28;20203;-76
2021/07/11 10:17:28;;;;;;;2.72;1.60;;;;;;;18.49;100.00;93979.31;5068652;28;20202;-77
2021/07/11 10:19:56;;;;;;;2.83;1.60;;;;;;;18.07;100.00;93985.06;5069389;28;20214;-76
2021/07/11 10:22:23;;;;;;;4.40;1.77;;;;;;;17.47;100.00;93980.38;5069011;28;20297;-76
2021/07/11 10:24:51;;;;;;;3.75;1.90;;;;;;;17.56;100.00;93981.59;5068984;28;20199;-75
2021/07/11 10:27:20;;;;;;;3.85;1.80;;;;;;;18.14;100.00;93971.69;5067874;28;20550;-75
2021/07/11 10:29:48;;;;;;;3.17;1.65;;;;;;;18.45;100.00;93980.03;5086839;28;20202;-76
2021/07/11 10:32:28;;;;;;;2.13;1.55;;;;;;;19.04;100.00;93966.25;5089265;28;20328;-77
2021/07/11 10:35:06;;;;;;;2.70;1.50;;;;;;;19.52;96.00;93969.91;5089427;28;20202;-78
2021/07/11 10:37:43;;;;;;;3.05;1.50;;;;;;;19.95;89.86;93970.00;5078236;28;20461;-78
2021/07/11 10:40:13;;;;;;;1.77;1.17;;;;;;;20.10;86.87;93964.00;5075488;28;20207;-76
2021/07/11 10:42:40;;;;;;;2.75;1.42;;;;;;;20.79;77.93;93973.69;5075515;28;20198;-76
2021/07/11 10:45:08;;;;;;;2.08;1.17;;;;;;;20.57;82.30;93973.03;5075568;28;20203;-79
2021/07/11 10:47:36;;;;;;;2.60;1.55;;;;;;;19.69;87.63;93976.94;5075563;28;20203;-78
2021/07/11 10:50:08;;;;;;;2.80;1.50;;;;;;;19.37;91.10;93983.00;5075405;28;20203;-78
2021/07/11 10:52:41;;;;;;;2.33;1.42;;;;;;;19.28;93.33;93979.97;5075192;28;20210;-78
2021/07/11 10:55:11;;;;;;;2.33;1.55;;;;;;;19.01;97.32;93974.66;5075142;28;20692;-77
2021/07/11 10:57:39;;;;;;;3.25;1.50;;;;;;;19.19;94.26;93976.19;5075380;28;20233;-78
2021/07/11 11:00:10;;;;;;;2.47;1.52;;;;;;;19.69;87.21;93975.06;5075311;28;20569;-80
2021/07/11 11:02:39;;;;;;;3.20;1.70;;;;;;;19.84;86.30;93971.00;5074952;28;20653;-79
2021/07/11 11:05:10;;;;;;;2.17;1.30;;;;;;;20.04;86.97;93976.44;5075368;28;20206;-78
2021/07/11 11:07:48;;;;;;;2.08;1.40;;;;;;;19.57;76.11;93977.09;5075111;28;20231;-77
2021/07/11 11:10:19;;;;;;;3.65;0.90;;;;;;;19.52;73.68;93964.59;5075260;28;20203;-78
2021/07/11 11:12:45;;;;;;;1.80;0.82;;;;;;;19.46;73.00;93968.25;5075370;28;20241;-76
2021/07/11 11:15:19;;;;;;;1.60;1.00;;;;;;;19.04;80.59;93958.28;5075031;28;20209;-77
2021/07/11 11:17:46;;;;;;;2.25;1.45;;;;;;;19.30;95.09;93956.72;5074724;28;20272;-78
2021/07/11 11:20:17;;;;;;;4.05;1.30;;;;;;;19.22;86.12;93965.09;5075068;28;20232;-76
2021/07/11 11:22:52;;;;;;;5.00;1.80;;;;;;;19.31;90.28;93962.81;5074748;28;20207;-76
2021/07/11 11:25:19;;;;;;;2.65;1.58;;;;;;;18.83;95.55;93963.34;5074654;28;20658;-76
2021/07/11 11:27:45;;;;;;;2.53;1.50;;;;;;;18.89;93.29;93968.72;5074649;28;20202;-78
2021/07/11 11:30:15;;;;;;;2.63;1.50;;;;;;;19.44;89.50;93965.06;5074849;28;20199;-76
2021/07/11 11:32:42;;;;;;;4.95;1.48;;;;;;;20.57;87.92;93963.22;5074552;28;20228;-77